Terminal Aerodrome Forecast
Issued by NWS

Home | Current Version | Previous Version | Text Only | Print | Product List | Glossary Off
Versions: 1 2 3 4 5 6 7 8 9 10 11 12 13 14 15 16 17 18 19

037
FTUS43 KIWX 110520
TAFSBN
TAF
KSBN 110520Z 1106/1206 29006KT P6SM OVC025
     FM110800 23004KT P6SM BKN030
     FM111200 19009KT P6SM -SN OVC025
      TEMPO 1114/1117 5SM -SN OVC015
     FM111700 18010KT P6SM OVC035
     FM120400 33018G27KT 2SM -SN BLSN OVC015=

USA.gov is the U.S. government's official web portal to all federal, state and local government web resources and services.